Time;durP1;ratioP1;P1;durP2;ratioP2;P2;SDS_P1;SDS_P2;PMS_P1;PMS_P2;Temp;Humidity;BMP_temperature;BMP_pressure;BME280_temperature;BME280_humidity;BME280_pressure;Samples;Min_cycle;Max_cycle;Signal;HPM_P1;HPM_P2
2023/04/04 00:03:43;;;;;;;4.60;1.67;;;14.60;31.10;;;;;;20834399;28;20079;-56
2023/04/04 00:13:44;;;;;;;3.00;1.63;;;14.40;31.70;;;;;;20833138;28;20050;-58
2023/04/04 00:23:45;;;;;;;5.78;1.80;;;14.30;32.00;;;;;;20833428;28;20479;-55
2023/04/04 00:33:47;;;;;;;4.90;1.42;;;14.10;32.80;;;;;;20833241;28;20049;-56
2023/04/04 00:43:48;;;;;;;4.00;1.45;;;13.90;32.90;;;;;;20831363;28;20053;-55
2023/04/04 00:53:51;;;;;;;3.83;1.88;;;13.80;33.10;;;;;;20831853;28;20048;-56
2023/04/04 01:03:52;;;;;;;3.53;1.90;;;13.70;33.80;;;;;;20831375;28;20049;-56
2023/04/04 01:13:54;;;;;;;6.93;1.90;;;13.40;34.50;;;;;;20829956;28;20057;-56
2023/04/04 01:24:03;;;;;;;3.88;1.60;;;13.20;35.40;;;;;;20830467;28;20164;-56
2023/04/04 01:34:13;;;;;;;4.43;1.80;;;12.90;36.00;;;;;;20831959;28;20049;-56
2023/04/04 01:44:17;;;;;;;2.53;1.35;;;12.70;36.60;;;;;;20846227;28;20049;-56
2023/04/04 01:54:19;;;;;;;;;;;12.40;37.30;;;;;;20844591;28;20045;-55
2023/04/04 02:04:20;;;;;;;2.90;1.20;;;12.10;37.50;;;;;;20844672;28;19932;-56
2023/04/04 02:14:22;;;;;;;9.48;1.45;;;12.10;38.30;;;;;;20843257;28;20091;-56
2023/04/04 02:24:23;;;;;;;3.05;1.63;;;11.90;38.50;;;;;;20843242;28;20050;-56
2023/04/04 02:34:25;;;;;;;1.67;0.90;;;11.70;38.90;;;;;;20842433;28;20053;-55
2023/04/04 02:44:26;;;;;;;2.03;1.02;;;11.70;38.50;;;;;;20840994;28;20479;-56
2023/04/04 02:54:28;;;;;;;1.73;1.00;;;11.60;38.40;;;;;;20840743;28;20100;-57
2023/04/04 03:04:29;;;;;;;2.63;0.85;;;11.50;38.50;;;;;;20838937;28;20057;-56
2023/04/04 03:14:31;;;;;;;2.08;1.10;;;11.40;38.80;;;;;;20838355;28;20072;-55
2023/04/04 03:24:32;;;;;;;3.53;1.33;;;11.30;39.20;;;;;;20838599;28;20053;-56
2023/04/04 03:34:33;;;;;;;3.83;1.10;;;11.10;39.90;;;;;;20837679;28;20049;-56
2023/04/04 03:44:38;;;;;;;1.85;0.98;;;11.00;39.90;;;;;;20837080;28;20414;-56
2023/04/04 03:54:40;;;;;;;5.73;1.13;;;10.90;40.20;;;;;;20836174;28;20052;-56
2023/04/04 04:04:41;;;;;;;2.78;1.17;;;10.80;41.00;;;;;;20834402;28;20052;-57
2023/04/04 04:14:43;;;;;;;2.50;1.02;;;10.70;41.80;;;;;;20833885;28;20410;-54
2023/04/04 04:24:44;;;;;;;4.43;1.50;;;10.50;42.30;;;;;;20833966;28;20057;-57
2023/04/04 04:34:46;;;;;;;2.58;1.33;;;10.40;41.90;;;;;;20831909;28;20050;-55
2023/04/04 04:44:47;;;;;;;3.28;1.38;;;10.40;41.70;;;;;;20831046;28;20087;-56
2023/04/04 04:54:50;;;;;;;3.10;1.33;;;10.50;41.40;;;;;;20830530;28;20052;-57
2023/04/04 05:04:51;;;;;;;6.22;1.58;;;10.50;41.10;;;;;;20831370;28;20053;-58
2023/04/04 05:14:53;;;;;;;4.55;1.70;;;10.60;40.60;;;;;;20829437;28;20498;-55
2023/04/04 05:24:54;;;;;;;4.13;1.20;;;10.60;40.70;;;;;;20830297;28;20049;-55
2023/04/04 05:34:56;;;;;;;2.92;1.35;;;10.70;40.70;;;;;;20830060;28;20107;-55
2023/04/04 05:44:57;;;;;;;4.22;1.63;;;10.60;40.90;;;;;;20828306;28;20042;-55
2023/04/04 05:54:58;;;;;;;4.25;1.60;;;10.40;41.20;;;;;;20828976;28;20533;-55
2023/04/04 06:05:00;;;;;;;2.55;1.33;;;10.30;41.30;;;;;;20829323;28;20053;-56
2023/04/04 06:15:01;;;;;;;7.32;1.92;;;10.30;41.70;;;;;;20828044;28;20411;-56
2023/04/04 06:25:03;;;;;;;7.60;2.10;;;10.30;41.50;;;;;;20837749;28;20148;-55
2023/04/04 06:35:05;;;;;;;6.03;1.75;;;10.30;40.80;;;;;;20842272;28;20049;-55
2023/04/04 06:45:07;;;;;;;6.75;2.35;;;10.40;39.90;;;;;;20840251;28;20103;-56
2023/04/04 06:55:09;;;;;;;7.97;1.90;;;10.70;39.40;;;;;;20840800;28;20056;-55
2023/04/04 07:05:12;;;;;;;6.05;1.70;;;11.20;36.40;;;;;;20839926;28;20049;-56
2023/04/04 07:15:13;;;;;;;3.17;0.90;;;11.70;34.90;;;;;;20837598;28;20095;-56
2023/04/04 07:25:15;;;;;;;3.03;0.90;;;12.00;32.20;;;;;;20838100;28;20136;-55
2023/04/04 07:35:16;;;;;;;3.67;1.20;;;12.20;31.30;;;;;;20837560;28;20538;-56
2023/04/04 07:45:17;;;;;;;4.95;1.05;;;12.20;31.50;;;;;;20835347;28;20049;-56
2023/04/04 07:55:19;;;;;;;3.88;1.20;;;12.50;30.70;;;;;;20835001;28;20136;-56
2023/04/04 08:05:21;;;;;;;2.55;1.00;;;12.70;30.80;;;;;;20835208;28;20141;-55
2023/04/04 08:15:22;;;;;;;8.07;1.38;;;12.90;29.70;;;;;;20831549;28;20106;-55
2023/04/04 08:25:24;;;;;;;1.58;0.95;;;12.90;29.10;;;;;;20831446;28;20061;-56
2023/04/04 08:35:25;;;;;;;1.80;0.70;;;13.30;29.00;;;;;;20831907;28;20426;-55
2023/04/04 08:45:29;;;;;;;13.32;1.83;;;13.70;28.70;;;;;;20830315;28;20045;-56
2023/04/04 08:55:31;;;;;;;3.37;0.90;;;13.80;29.30;;;;;;20832074;28;20049;-56
2023/04/04 09:05:33;;;;;;;4.70;1.70;;;14.10;29.70;;;;;;20831859;28;20076;-56
2023/04/04 09:15:37;;;;;;;4.60;1.70;;;14.30;29.00;;;;;;20829092;28;20054;-56
2023/04/04 09:25:54;;;;;;;1.33;0.70;;;14.30;28.20;;;;;;20829046;28;20049;-55
2023/04/04 09:36:02;;;;;;;1.02;0.73;;;14.50;27.90;;;;;;20828738;28;20073;-60
2023/04/04 09:46:04;;;;;;;15.52;2.75;;;15.10;31.90;;;;;;20829762;28;20062;-56
2023/04/04 09:56:06;;;;;;;8.95;1.15;;;15.30;31.50;;;;;;20831870;28;20132;-56
2023/04/04 10:06:11;;;;;;;1.50;0.80;;;15.40;26.20;;;;;;20844867;28;20132;-57
2023/04/04 10:16:12;;;;;;;1.80;0.57;;;15.60;24.60;;;;;;20843751;28;20096;-55
2023/04/04 10:26:14;;;;;;;2.03;0.77;;;15.50;22.70;;;;;;20841469;28;20076;-57
2023/04/04 10:36:21;;;;;;;1.40;0.70;;;15.70;23.60;;;;;;20839835;28;20133;-57
2023/04/04 10:46:29;;;;;;;1.15;0.60;;;16.10;20.90;;;;;;20838647;28;20531;-58
2023/04/04 10:56:30;;;;;;;0.63;0.50;;;16.10;22.20;;;;;;20841021;28;20132;-56
2023/04/04 11:07:05;;;;;;;0.70;0.50;;;16.40;20.90;;;;;;20827442;28;20054;-57
2023/04/04 11:17:09;;;;;;;1.27;0.70;;;16.70;21.40;;;;;;20830770;28;20080;-59
2023/04/04 11:27:11;;;;;;;1.85;0.60;;;17.20;20.80;;;;;;20831697;28;20067;-58
2023/04/04 11:37:18;;;;;;;3.50;0.70;;;17.30;19.30;;;;;;20830033;28;20045;-56
2023/04/04 11:47:23;;;;;;;8.35;1.70;;;17.70;19.70;;;;;;20833339;28;20080;-57
2023/04/04 11:57:24;;;;;;;1.98;0.60;;;17.90;18.50;;;;;;20834235;28;20098;-59
2023/04/04 12:07:28;;;;;;;3.33;0.63;;;18.10;19.30;;;;;;20833901;28;20195;-59
2023/04/04 12:17:29;;;;;;;3.67;1.07;;;18.20;15.50;;;;;;20832711;28;20065;-58
2023/04/04 12:27:30;;;;;;;2.83;0.60;;;18.30;11.90;;;;;;20833838;28;20130;-58
2023/04/04 12:37:32;;;;;;;5.78;0.93;;;18.40;12.10;;;;;;20832951;28;20479;-58
2023/04/04 12:47:33;;;;;;;5.63;0.82;;;18.50;12.50;;;;;;20831760;28;20451;-59
2023/04/04 12:57:35;;;;;;;5.25;0.75;;;18.80;13.20;;;;;;20830506;28;20132;-60
2023/04/04 13:07:46;;;;;;;0.98;0.60;;;18.90;13.30;;;;;;20831660;28;20046;-59
2023/04/04 13:17:49;;;;;;;5.00;0.60;;;19.10;13.10;;;;;;20830288;28;20176;-58
2023/04/04 13:27:50;;;;;;;1.67;0.80;;;19.20;12.60;;;;;;20830519;28;20049;-58
2023/04/04 13:37:51;;;;;;;1.40;0.52;;;19.30;13.40;;;;;;20846146;28;20045;-59
2023/04/04 13:47:52;;;;;;;1.15;0.80;;;19.40;13.20;;;;;;20844929;28;20141;-58
2023/04/04 13:57:53;;;;;;;3.15;0.80;;;19.50;14.80;;;;;;20845383;28;20485;-61
2023/04/04 14:07:55;;;;;;;1.65;0.70;;;19.60;14.20;;;;;;20842639;28;20079;-59
2023/04/04 14:17:56;;;;;;;3.00;0.80;;;19.70;14.90;;;;;;20842745;28;20080;-59
2023/04/04 14:27:57;;;;;;;1.40;0.70;;;19.70;14.70;;;;;;20842971;28;20049;-59
2023/04/04 14:37:58;;;;;;;4.35;0.77;;;19.90;14.90;;;;;;20842051;28;20080;-58
2023/04/04 14:47:59;;;;;;;1.25;0.82;;;20.00;15.10;;;;;;20840776;28;20143;-59
2023/04/04 14:58:01;;;;;;;0.85;0.60;;;20.10;14.40;;;;;;20840389;28;20041;-59
2023/04/04 15:08:03;;;;;;;6.72;1.10;;;20.20;13.90;;;;;;20838720;28;20153;-60
2023/04/04 15:18:04;;;;;;;1.13;0.60;;;20.20;14.30;;;;;;20837670;28;20115;-59
2023/04/04 15:28:05;;;;;;;3.63;0.88;;;20.20;13.00;;;;;;20838171;28;20045;-60
2023/04/04 15:38:06;;;;;;;0.40;0.40;;;20.30;13.50;;;;;;20837023;28;20095;-60
2023/04/04 15:48:07;;;;;;;1.85;0.63;;;20.60;13.40;;;;;;20836014;28;20049;-58
2023/04/04 15:58:09;;;;;;;1.35;0.50;;;20.50;13.60;;;;;;20832527;28;20133;-60
2023/04/04 16:08:12;;;;;;;0.98;0.50;;;20.50;13.70;;;;;;20832525;28;20079;-60
2023/04/04 16:18:13;;;;;;;3.20;0.53;;;20.50;14.00;;;;;;20833638;28;20566;-59
2023/04/04 16:28:14;;;;;;;3.22;0.60;;;20.50;14.10;;;;;;20833031;28;20060;-57
2023/04/04 16:38:16;;;;;;;1.00;0.52;;;20.50;13.90;;;;;;20833384;28;20136;-62
2023/04/04 16:48:17;;;;;;;3.53;0.50;;;20.40;13.60;;;;;;20831520;28;20053;-58
2023/04/04 16:58:18;;;;;;;1.38;0.60;;;20.20;13.60;;;;;;20831417;28;20110;-57
2023/04/04 17:08:19;;;;;;;1.58;0.63;;;20.20;13.50;;;;;;20830143;28;20443;-55
2023/04/04 17:18:21;;;;;;;2.25;0.70;;;20.20;14.00;;;;;;20829018;28;20563;-58
2023/04/04 17:28:23;;;;;;;3.07;0.80;;;19.90;14.20;;;;;;20830240;28;20391;-57
2023/04/04 17:38:24;;;;;;;1.70;0.70;;;19.80;13.80;;;;;;20830253;28;20131;-56
2023/04/04 17:48:28;;;;;;;1.20;0.73;;;19.60;13.50;;;;;;20828143;28;20076;-56
2023/04/04 17:58:29;;;;;;;2.28;1.08;;;19.40;13.30;;;;;;20827943;28;20140;-58
2023/04/04 18:08:31;;;;;;;2.80;0.60;;;19.20;13.30;;;;;;20828655;28;20446;-57
2023/04/04 18:18:32;;;;;;;1.33;0.77;;;19.10;13.40;;;;;;20832697;28;20136;-56
2023/04/04 18:28:33;;;;;;;2.47;0.80;;;18.80;13.70;;;;;;20842696;28;20051;-58
2023/04/04 18:38:34;;;;;;;2.15;0.68;;;18.70;13.50;;;;;;20840287;28;20128;-56
2023/04/04 18:48:35;;;;;;;2.17;1.10;;;18.50;13.80;;;;;;20841631;28;20049;-57
2023/04/04 18:58:36;;;;;;;1.88;0.95;;;18.20;13.80;;;;;;20840303;28;20132;-56
2023/04/04 19:08:41;;;;;;;1.88;0.88;;;18.10;13.50;;;;;;20840015;28;20124;-57
2023/04/04 19:18:43;;;;;;;3.80;1.10;;;17.90;13.70;;;;;;20838130;28;20049;-55
2023/04/04 19:28:45;;;;;;;1.80;0.88;;;17.80;13.90;;;;;;20837582;28;20056;-56
2023/04/04 19:38:49;;;;;;;3.75;1.23;;;17.70;14.20;;;;;;20837642;28;20127;-58
2023/04/04 19:48:52;;;;;;;1.60;0.93;;;17.40;14.60;;;;;;20835728;28;20472;-57
2023/04/04 19:58:56;;;;;;;2.60;1.10;;;17.20;15.10;;;;;;20834522;28;20135;-57
2023/04/04 20:09:00;;;;;;;2.65;1.10;;;17.20;15.80;;;;;;20833448;28;20140;-57
2023/04/04 20:19:02;;;;;;;;;;;17.00;16.40;;;;;;20832909;28;20149;-57
2023/04/04 20:29:24;;;;;;;2.00;1.13;;;16.80;16.70;;;;;;20833793;28;19921;-59
2023/04/04 20:39:39;;;;;;;4.60;1.10;;;16.70;16.80;;;;;;20831948;28;20133;-57
2023/04/04 20:49:41;;;;;;;3.45;1.08;;;16.70;16.90;;;;;;20831891;28;20499;-58
2023/04/04 20:59:43;;;;;;;1.90;1.17;;;16.50;17.10;;;;;;20831343;28;20045;-58
2023/04/04 21:09:44;;;;;;;3.20;1.00;;;16.20;17.60;;;;;;20829930;28;20049;-57
2023/04/04 21:19:46;;;;;;;1.75;1.25;;;16.20;17.80;;;;;;20829022;28;20498;-57
2023/04/04 21:29:47;;;;;;;5.22;1.60;;;16.00;18.00;;;;;;20829300;28;20049;-57
2023/04/04 21:39:55;;;;;;;1.63;1.17;;;15.80;18.40;;;;;;20828619;28;20056;-57
2023/04/04 21:49:57;;;;;;;2.47;1.30;;;15.80;18.60;;;;;;20830457;28;20049;-59
2023/04/04 21:59:58;;;;;;;1.80;0.93;;;15.60;18.80;;;;;;20845017;28;20095;-57
2023/04/04 22:09:59;;;;;;;1.00;0.80;;;15.50;18.70;;;;;;20842685;28;20057;-59
2023/04/04 22:20:07;;;;;;;1.52;0.80;;;15.30;19.00;;;;;;20842320;28;20107;-58
2023/04/04 22:30:09;;;;;;;3.28;1.00;;;15.10;19.30;;;;;;20842252;28;20049;-56
2023/04/04 22:40:11;;;;;;;2.10;1.05;;;15.00;19.60;;;;;;20841742;28;20052;-59
2023/04/04 22:50:14;;;;;;;1.55;0.70;;;14.80;20.00;;;;;;20842530;28;20392;-56
2023/04/04 23:00:16;;;;;;;2.25;0.93;;;14.70;20.20;;;;;;20841735;28;20049;-57
2023/04/04 23:10:18;;;;;;;2.28;1.00;;;14.70;20.50;;;;;;20840496;28;20042;-56
2023/04/04 23:20:19;;;;;;;2.53;1.00;;;14.40;20.90;;;;;;20839272;28;20144;-56
2023/04/04 23:30:24;;;;;;;2.03;1.00;;;14.20;21.20;;;;;;20839743;28;20042;-56
2023/04/04 23:40:25;;;;;;;;;;;14.00;21.40;;;;;;20837927;28;20045;-57
2023/04/04 23:50:26;;;;;;;2.05;1.40;;;13.80;21.60;;;;;;20838309;28;19921;-59
